Ulmodrome de Limoux

FR-0329 · Aude, Occitanie, 法国

罗盘
风向 的 风向 280°
风: 18 kt, 5 beaufort

添加一条跑道以查看侧风和逆风信息。

添置 跑道
0 ft 1.000 2.000 3.000 4.000 5.000
Cloud Cloud Cloud Cloud Cloud Cloud
BKN 4.300
Cloud Cloud Cloud Cloud Cloud Cloud Cloud Cloud
OVC 4.900
METAR LFMK 241500Z AUTO 28018KT 9999 BKN043 OVC049 11/06 Q1016 TEMPO 4000 -SHRA BECMG 30020G30KT FEW030TCU BKN050

METAR Ulmodrome de Limoux - FR-0329

Ulmodrome de Limoux是,法国中的小机场。 该机场位于纬度43,05666和经度2,22633。 这个机场没有ICAO代码,我们使用FR-0329作为参考。 机场在Bordeaux FIR中。

该航空气象观测是针对Carcassonne Airport在2024年4月24日 17:00, 当地时间进行的。

机场观察

风向为280°,速度为18 kt。

可见度为10 km 或者更多。

有碎云在4.300 ft的高度 和 乌云密布在4.900 ft的高度。 破损或更高的上限为4.300 ft。

温度和风寒是11 °C。 露点为6 °C,相对湿度为72%。 海平面上的气压为1016 hPa (QNH)。

发展趋势

  • 暂时的

    可变方向的风很小或没有。 可见性变为4 km。 重大天气:光 阵雨 雨。

  • 变得

    风来自300°方向,速度为20 kt。 预计30 kt阵风。 几云 高耸的积云在3.000 ft的高度 和 碎云在5.000 ft的高度.

白天

今天,太阳从06:53升起,在20:44降落。 这适用于Ulmodrome de Limoux,世界夏令时可能有所不同。 当地时间与世界标准时间之间的时差为+2 小时。 夏令时目前正在进行中。

公司介绍

我们没有关于这个机场的公司信息。

体会

到Vliegles.nl去找飞行课程,跳伞和其他飞行体验。 浏览页面,了解Ulmodrome de Limoux附近所有可用的活动。 你也可以使用搜索功能来寻找你所在地附近的特定飞行课程、跳伞或其他飞行体验。

乌云

4.300 ft BKN 碎云
4.900 ft OVC 乌云密布
3.000 ft FEW 变得 几云 高耸的积云
5.000 ft BKN 变得 碎云

温度 & 天气

温度 11 °C
露点 6 °C
相对湿度 72%
Kp-index 0 (0-9)

白天

日出
06:53
中午
13:48
日落
20:44 (3:24)

小工具

你想在你的网站上有一个关于Ulmodrome de Limoux的当前航空天气(METAR)的小部件吗?

显示HTML代码
报告变更